• Join FlightAware (Why Join?)
  • Login
  • US Flag 
05:52PM EST


 

Airport Tracker/Info


-or-


 

Live Flight TrackerFlight Track Log ✈ N441R ✈ 17-Jul-2013 ✈ KJKA - KBKW

Flight Track Log - Related Links

Times and Time Zones

All times are in EDT time to prevent confusion due to time zone crossing. See the N441R flight status page for this flight to view local times or setup timezone preferences in your user account.

Time Position Orientation Groundspeed Altitude Reporting Facility
EDT Latitude Longitude Course Direction KTS MPH feet Rate Location/Type
06:38PM 30.3206 -87.6256 36° Northeast 163 188 2,600  Level Jacksonville Center
06:39PM 30.3614 -87.5914 36° Northeast 150 173 5,300 2,100 Climbing Jacksonville Center
06:40PM 30.4022 -87.5597 34° Northeast 170 196 7,300 1,740 Climbing Jacksonville Center
06:41PM 30.4436 -87.5136 44° Northeast 193 222 9,100 1,680 Climbing Jacksonville Center
06:43PM 30.4914 -87.4628 43° Northeast 213 245 11,300 1,860 Climbing Jacksonville Center
06:44PM 30.5283 -87.4261 41° Northeast 194 223 13,300 1,920 Climbing Jacksonville Center
06:45PM 30.5672 -87.3844 43° Northeast 189 217 15,200 1,860 Climbing Jacksonville Center
06:46PM 30.6161 -87.3578 25° Northeast 183 211 17,100 1,740 Climbing Jacksonville Center
06:47PM 30.6628 -87.3358 22° Northeast 183 211 18,700 1,500 Climbing Jacksonville Center
06:48PM 30.7139 -87.3117 22° Northeast 183 211 20,100 1,320 Climbing Jacksonville Center
06:49PM 30.7631 -87.2803 29° Northeast 188 216 21,400 1,320 Climbing Jacksonville Center
06:50PM 30.8081 -87.2436 35° Northeast 193 222 22,800 1,200 Climbing Jacksonville Center
06:51PM 30.8572 -87.2072 32° Northeast 193 222 23,800 1,020 Climbing Jacksonville Center
06:52PM 30.9044 -87.1681 35° Northeast 198 228 24,900 960 Climbing Jacksonville Center
06:53PM 30.9539 -87.1292 34° Northeast 203 234 25,800 900 Climbing Jacksonville Center
06:54PM 31.0031 -87.0925 33° Northeast 203 234 26,700 600 Climbing Jacksonville Center
06:55PM 31.0547 -87.0489 36° Northeast 203 234 27,000 120 Climbing Jacksonville Center
06:56PM 31.1125 -87.0028 34° Northeast 221 254 27,000  Level Jacksonville Center
06:57PM 31.1703 -86.9569 34° Northeast 239 275 27,000  Level Jacksonville Center
06:58PM 31.2325 -86.9086 34° Northeast 246 283 27,000  Level Jacksonville Center
07:00PM 31.3947 -86.7828 33° Northeast 284 327 27,000  Level Atlanta Center
07:01PM 31.4439 -86.7381 38° Northeast 278 320 27,000  Level Atlanta Center
07:02PM 31.5053 -86.6889 34° Northeast 264 304 27,000  Level Atlanta Center
07:03PM 31.5669 -86.6394 34° Northeast 269 310 27,000  Level Atlanta Center
07:04PM 31.6286 -86.5875 36° Northeast 269 310 27,000  Level Atlanta Center
07:05PM 31.6900 -86.5381 34° Northeast 269 310 27,000  Level Atlanta Center
07:06PM 31.7536 -86.4861 35° Northeast 269 310 27,000  Level Atlanta Center
07:07PM 31.8153 -86.4389 33° Northeast 269 310 27,000  Level Atlanta Center
07:08PM 31.8886 -86.4236 10° North 264 304 27,000  Level Atlanta Center
07:09PM 31.9783 -86.4139 North 275 316 27,000  Level Atlanta Center
07:10PM 32.0558 -86.3986 North 286 329 27,000  Level Atlanta Center
07:11PM 32.1189 -86.3881 North 263 303 27,000  Level Atlanta Center
07:12PM 32.1942 -86.3778 North 263 303 27,000  Level Atlanta Center
07:13PM 32.2781 -86.3603 10° North 263 303 27,000  Level Atlanta Center
07:14PM 32.3572 -86.3625 359° North 271 312 27,000  Level Atlanta Center
07:15PM 32.4275 -86.4011 335° Northwest 271 312 27,000  Level Atlanta Center
07:16PM 32.5083 -86.4306 343° North 290 334 27,000  Level Atlanta Center
07:17PM 32.5850 -86.4622 341° North 290 334 27,000  Level Atlanta Center
07:18PM 32.6614 -86.4914 342° North 290 334 27,000  Level Atlanta Center
07:19PM 32.7381 -86.5231 341° North 285 328 27,000  Level Atlanta Center
07:20PM 32.8128 -86.5525 342° North 285 328 27,000  Level Atlanta Center
07:21PM 32.8872 -86.5817 342° North 285 328 27,000  Level Atlanta Center
07:22PM 32.9639 -86.6136 341° North 285 328 27,000  Level Atlanta Center
07:23PM 33.0425 -86.6408 344° North 285 328 27,000  Level Atlanta Center
07:24PM 33.1192 -86.6728 341° North 285 328 27,000  Level Atlanta Center
07:25PM 33.1975 -86.7075 340° North 285 328 27,000  Level Atlanta Center
07:26PM 33.2761 -86.7397 341° North 285 328 27,000  Level Atlanta Center
07:27PM 33.3444 -86.7667 342° North 285 328 27,000  Level Atlanta Center
07:28PM 33.4231 -86.7992 341° North 285 328 27,000  Level Atlanta Center
07:29PM 33.5039 -86.8289 343° North 290 334 27,000  Level Atlanta Center
07:30PM 33.5825 -86.8614 341° North 290 334 27,000  Level Atlanta Center
07:31PM 33.6592 -86.8839 346° North 290 334 27,000  Level Atlanta Center
07:32PM 33.7208 -86.8336 34° Northeast 249 287 27,000  Level Atlanta Center
07:33PM 33.7725 -86.7653 48° Northeast 246 283 27,000  Level Atlanta Center
07:34PM 33.8239 -86.6994 47° Northeast 252 290 27,000  Level Atlanta Center
07:35PM 33.8756 -86.6333 47° Northeast 262 302 27,000  Level Atlanta Center
07:36PM 33.9228 -86.5697 48° Northeast 262 302 27,000  Level Atlanta Center
07:37PM 33.9719 -86.5061 47° Northeast 262 302 27,000  Level Atlanta Center
07:38PM 34.0214 -86.4422 47° Northeast 262 302 27,000  Level Atlanta Center
07:39PM 34.0683 -86.3783 48° Northeast 262 302 27,000  Level Atlanta Center
07:40PM 34.1175 -86.3144 47° Northeast 256 295 27,000  Level Atlanta Center
07:41PM 34.1667 -86.2506 47° Northeast 256 295 27,000  Level Atlanta Center
07:42PM 34.2244 -86.1767 47° Northeast 256 295 27,000  Level Atlanta Center
07:43PM 34.2714 -86.1125 48° Northeast 256 295 27,000  Level Atlanta Center
07:44PM 34.3206 -86.0483 47° Northeast 256 295 27,000  Level Atlanta Center
07:45PM 34.3694 -85.9842 47° Northeast 256 295 27,000  Level Atlanta Center
07:47PM 34.4675 -85.8553 47° Northeast 256 295 27,000  Level Atlanta Center
07:48PM 34.5081 -85.8033 47° Northeast 256 295 27,000  Level Atlanta Center
07:49PM 34.5589 -85.7389 46° Northeast 251 289 27,000  Level Atlanta Center
07:50PM 34.6078 -85.6692 50° Northeast 251 289 27,000  Level Atlanta Center
07:51PM 34.6589 -85.6044 46° Northeast 258 297 27,000  Level Atlanta Center
07:52PM 34.7097 -85.5372 47° Northeast 264 304 27,000  Level Atlanta Center
07:53PM 34.7606 -85.4672 49° Northeast 264 304 27,000  Level Atlanta Center
07:54PM 34.8094 -85.3997 49° Northeast 264 304 27,000  Level Atlanta Center
07:55PM 34.8581 -85.3322 49° Northeast 264 304 27,000  Level Atlanta Center
07:56PM 34.9089 -85.2672 46° Northeast 264 304 27,000  Level Atlanta Center
07:57PM 34.9575 -85.1994 49° Northeast 264 304 27,000  Level Atlanta Center
07:58PM 35.0061 -85.1317 49° Northeast 264 304 27,000  Level Atlanta Center
07:59PM 35.0589 -85.0639 46° Northeast 264 304 27,000  Level Atlanta Center
08:00PM 35.1094 -84.9933 49° Northeast 264 304 27,000  Level Atlanta Center
08:01PM 35.1581 -84.9253 49° Northeast 264 304 27,000  Level Atlanta Center
08:02PM 35.2064 -84.8572 49° Northeast 264 304 27,000  Level Atlanta Center
08:03PM 35.2569 -84.7867 49° Northeast 264 304 27,000  Level Atlanta Center
08:04PM 35.3075 -84.7183 48° Northeast 264 304 27,000  Level Atlanta Center
08:05PM 35.3600 -84.6500 47° Northeast 264 304 27,000  Level Atlanta Center
08:06PM 35.4106 -84.5764 50° Northeast 264 304 27,000  Level Atlanta Center
08:07PM 35.4608 -84.5053 49° Northeast 264 304 27,000  Level Atlanta Center
08:08PM 35.5172 -84.4444 41° Northeast 264 304 27,000  Level Atlanta Center
08:09PM 35.5800 -84.3886 36° Northeast 264 304 27,000  Level Atlanta Center
08:10PM 35.6450 -84.3325 35° Northeast 274 315 27,000  Level Atlanta Center
08:11PM 35.7117 -84.2842 30° Northeast 274 315 27,000 -180 Level Atlanta Center
08:12PM 35.7808 -84.2333 31° Northeast 280 322 26,700 -420 Descending Atlanta Center
08:13PM 35.8497 -84.1822 31° Northeast 280 322 26,200 -360 Descending Atlanta Center
08:14PM 35.9186 -84.1311 31° Northeast 280 322 26,000 -120 Descending Atlanta Center
08:15PM 35.9914 -84.0850 27° Northeast 280 322 26,000  Level Atlanta Center
08:16PM 36.0625 -84.0361 29° Northeast 285 328 26,000  Level Atlanta Center
08:17PM 36.1292 -83.9900 29° Northeast 285 328 26,000  Level Atlanta Center
08:18PM 36.1958 -83.9408 31° Northeast 285 328 26,000  Level Atlanta Center
08:19PM 36.2625 -83.8919 31° Northeast 280 322 26,000  Level Atlanta Center
08:20PM 36.3250 -83.8247 41° Northeast 273 314 26,000 240 Level Atlanta Center
08:21PM 36.3792 -83.7575 45° Northeast 265 305 26,500 420 Climbing Atlanta Center
08:22PM 36.4333 -83.7006 40° Northeast 260 299 26,900 180 Climbing Atlanta Center
08:23PM 36.4861 -83.6239 49° Northeast 264 304 27,000  Climbing Indianapolis Center
08:24PM 36.5258 -83.5547 54° Northeast 268 308 27,000  Level Indianapolis Center
08:25PM 36.5675 -83.4783 56° Northeast 266 306 27,000  Level Indianapolis Center
08:26PM 36.6164 -83.3867 56° Northeast 272 313 27,000  Level Indianapolis Center
08:27PM 36.6581 -83.3081 57° Northeast 272 313 27,000  Level Indianapolis Center
08:28PM 36.6997 -83.2308 56° Northeast 270 311 27,000  Level Indianapolis Center
08:29PM 36.7403 -83.1531 57° Northeast 268 308 27,000  Level Indianapolis Center
08:30PM 36.7817 -83.0747 57° Northeast 271 312 27,000  Level Indianapolis Center
08:31PM 36.8256 -82.9822 59° Northeast 270 311 27,000  Level Indianapolis Center
08:32PM 36.8344 -82.8950 83° East 262 302 27,000  Level Indianapolis Center
08:33PM 36.8483 -82.8056 79° East 268 308 27,000  Level Indianapolis Center
08:34PM 36.8625 -82.7203 78° East 257 296 27,000  Level Indianapolis Center
08:36PM 36.8772 -82.6169 80° East 259 298 27,000  Level Indianapolis Center
08:37PM 36.8933 -82.5278 77° East 263 303 27,000  Level Indianapolis Center
08:38PM 36.9092 -82.4372 78° East 267 307 27,000  Level Indianapolis Center
08:39PM 36.9289 -82.3481 75° East 266 306 27,000  Level Indianapolis Center
08:40PM 36.9528 -82.2575 72° East 271 312 27,000  Level Indianapolis Center
08:41PM 36.9800 -82.1683 69° East 273 314 27,000  Level Indianapolis Center
08:42PM 37.0192 -82.0692 64° Northeast 272 313 27,000  Level Indianapolis Center
08:43PM 37.0575 -81.9875 60° Northeast 273 314 27,000  Level Indianapolis Center
08:44PM 37.0956 -81.9053 60° Northeast 274 315 27,000 -420 Level Indianapolis Center
08:45PM 37.1322 -81.8192 62° Northeast 280 322 26,200 -1,320 Descending Indianapolis Center
08:46PM 37.1714 -81.7222 63° Northeast 309 356 24,300 -1,980 Descending Indianapolis Center
08:47PM 37.2175 -81.6267 59° Northeast 317 365 22,200 -1,980 Descending Indianapolis Center
08:48PM 37.2711 -81.5153 59° Northeast 317 365 20,300 -1,740 Descending Indianapolis Center
08:49PM 37.3111 -81.4217 62° Northeast 301 346 18,700 -1,500 Descending Indianapolis Center
08:50PM 37.3447 -81.3272 66° East 303 349 17,300 -1,500 Descending Indianapolis Center
08:51PM 37.3797 -81.2406 63° Northeast 289 333 15,600 -1,860 Descending Indianapolis Center
08:52PM 37.4267 -81.1708 50° Northeast 274 315 13,500 -2,400 Descending Indianapolis Center
08:53PM 37.5025 -81.1153 30° Northeast 270 311 10,700 -2,280 Descending Indianapolis Center
08:54PM 37.5656 -81.1286 350° North 246 283 8,900 -1,620 Descending Indianapolis Center
08:55PM 37.6283 -81.1614 338° Northwest 247 284 7,400 -1,500 Descending Indianapolis Center